createdAt,value
2019-03-08T00:01:59.935Z,98705.84
2019-03-08T00:04:30.429Z,98706.52
2019-03-08T00:07:00.906Z,98709.47
2019-03-08T00:09:31.460Z,98703.05
2019-03-08T00:12:01.953Z,98711.95
2019-03-08T00:14:32.620Z,98707.84
2019-03-08T00:17:03.207Z,98717.88
2019-03-08T00:19:33.720Z,98723.81
2019-03-08T00:22:04.165Z,98721.00
2019-03-08T00:24:34.736Z,98730.06
2019-03-08T00:27:05.528Z,98728.74
2019-03-08T00:29:35.987Z,98727.42
2019-03-08T00:32:06.673Z,98724.80
2019-03-08T00:34:37.129Z,98714.94
2019-03-08T00:37:09.087Z,98723.95
2019-03-08T00:39:39.923Z,98722.98
2019-03-08T00:42:10.441Z,98715.09
2019-03-08T00:44:40.902Z,98715.75
2019-03-08T00:47:11.469Z,98717.05
2019-03-08T00:49:41.866Z,98713.27
2019-03-08T00:52:12.511Z,98730.16
2019-03-08T00:54:43.002Z,98715.55
2019-03-08T00:57:13.977Z,98726.69
2019-03-08T00:59:44.428Z,98717.02
2019-03-08T01:02:14.937Z,98708.45
2019-03-08T01:04:45.690Z,98706.48
2019-03-08T01:07:16.128Z,98707.13
2019-03-08T01:09:46.660Z,98700.25
2019-03-08T01:12:17.152Z,98693.99
2019-03-08T01:14:47.630Z,98704.66
2019-03-08T01:17:18.222Z,98699.88
2019-03-08T01:19:48.735Z,98691.02
2019-03-08T01:22:19.191Z,98709.52
2019-03-08T01:24:49.663Z,98697.23
2019-03-08T01:27:20.139Z,98707.05
2019-03-08T01:29:50.627Z,98703.75
2019-03-08T01:32:21.228Z,98693.43
2019-03-08T01:34:51.708Z,98694.57
2019-03-08T01:37:22.187Z,98702.07
2019-03-08T01:39:52.703Z,98720.76
2019-03-08T01:42:23.181Z,98697.45
2019-03-08T01:44:53.698Z,98694.84
2019-03-08T01:47:24.242Z,98695.00
2019-03-08T01:49:54.731Z,98700.06
2019-03-08T01:52:25.181Z,98690.89
2019-03-08T01:54:55.721Z,98699.05
2019-03-08T01:57:26.166Z,98693.97
2019-03-08T01:59:56.636Z,98683.16
2019-03-08T02:02:27.179Z,98685.30
2019-03-08T02:04:57.648Z,98687.58
2019-03-08T02:07:28.202Z,98683.00
2019-03-08T02:09:58.741Z,98676.77
2019-03-08T02:12:29.209Z,98663.35
2019-03-08T02:14:59.679Z,98679.39
2019-03-08T02:17:30.257Z,98678.56
2019-03-08T02:20:00.726Z,98668.91
2019-03-08T02:22:31.179Z,98693.81
2019-03-08T02:25:01.712Z,98679.72
2019-03-08T02:27:32.171Z,98667.27
2019-03-08T02:30:02.727Z,98666.44
2019-03-08T02:32:33.275Z,98666.11
2019-03-08T02:35:03.930Z,98680.36
2019-03-08T02:37:34.396Z,98677.08
2019-03-08T02:40:19.306Z,98679.38
2019-03-08T02:42:49.816Z,98675.59
2019-03-08T02:45:20.566Z,98688.86
2019-03-08T02:47:51.151Z,98679.02
2019-03-08T02:50:21.622Z,98682.33
2019-03-08T02:52:52.105Z,98678.02
2019-03-08T02:55:22.639Z,98684.72
2019-03-08T02:57:53.412Z,98672.09
2019-03-08T03:00:24.898Z,98681.60
2019-03-08T03:02:55.449Z,98677.67
2019-03-08T03:05:25.923Z,98685.17
2019-03-08T03:07:56.370Z,98670.13
2019-03-08T03:10:26.915Z,98669.52
2019-03-08T03:12:57.416Z,98682.78
2019-03-08T03:15:27.930Z,98681.19
2019-03-08T03:17:58.497Z,98685.73
2019-03-08T03:20:28.964Z,98686.73
2019-03-08T03:22:59.698Z,98693.27
2019-03-08T03:25:30.230Z,98705.92
2019-03-08T03:28:00.689Z,98708.36
2019-03-08T03:30:31.224Z,98711.16
2019-03-08T03:33:01.780Z,98715.09
2019-03-08T03:35:32.474Z,98723.31
2019-03-08T03:38:02.950Z,98715.77
2019-03-08T03:40:34.238Z,98718.09
2019-03-08T03:43:05.011Z,98725.78
2019-03-08T03:45:35.465Z,98729.23
2019-03-08T03:48:06.263Z,98735.97
2019-03-08T03:50:36.694Z,98738.89
2019-03-08T03:53:07.428Z,98750.55
2019-03-08T03:55:38.887Z,98752.54
2019-03-08T03:58:09.424Z,98753.34
2019-03-08T04:00:41.123Z,98766.95
2019-03-08T04:03:11.712Z,98760.08
2019-03-08T04:05:42.200Z,98787.97
2019-03-08T04:08:12.710Z,98795.21
2019-03-08T04:10:43.214Z,98798.45
2019-03-08T04:13:13.934Z,98790.41
2019-03-08T04:15:44.424Z,98790.77
2019-03-08T04:18:16.640Z,98806.33
2019-03-08T04:20:47.119Z,98799.27
2019-03-08T04:23:17.666Z,98817.16
2019-03-08T04:25:48.485Z,98798.45
2019-03-08T04:28:18.946Z,98798.97
2019-03-08T04:30:49.457Z,98809.81
2019-03-08T04:33:19.998Z,98809.66
2019-03-08T04:35:50.527Z,98826.69
2019-03-08T04:38:21.083Z,98818.48
2019-03-08T04:40:51.662Z,98820.16
2019-03-08T04:43:22.136Z,98826.36
2019-03-08T04:45:52.650Z,98831.93
2019-03-08T04:48:23.225Z,98844.72
2019-03-08T04:50:53.622Z,98837.48
2019-03-08T04:53:24.082Z,98844.33
2019-03-08T04:55:54.666Z,98848.77
2019-03-08T04:58:25.171Z,98846.95
2019-03-08T05:00:55.686Z,98842.25
2019-03-08T05:03:26.272Z,98844.54
2019-03-08T05:05:56.763Z,98859.92
2019-03-08T05:08:27.245Z,98851.25
2019-03-08T05:10:57.803Z,98856.49
2019-03-08T05:13:28.337Z,98864.84
2019-03-08T05:15:58.803Z,98870.23
2019-03-08T05:18:29.351Z,98865.42
2019-03-08T05:20:59.854Z,98886.44
2019-03-08T05:23:30.307Z,98887.94
2019-03-08T05:26:00.836Z,98906.25
2019-03-08T05:28:31.319Z,98892.09
2019-03-08T05:31:02.107Z,98885.53
2019-03-08T05:33:32.653Z,98900.14
2019-03-08T05:36:03.179Z,98907.86
2019-03-08T05:38:33.676Z,98925.92
2019-03-08T05:41:04.235Z,98925.92
2019-03-08T05:43:34.899Z,98939.04
2019-03-08T05:46:05.379Z,98947.20
2019-03-08T05:48:36.010Z,98947.20
2019-03-08T05:51:06.509Z,98944.39
2019-03-08T05:53:36.991Z,98956.19
2019-03-08T05:56:07.561Z,98950.28
2019-03-08T05:58:38.104Z,98979.61
2019-03-08T06:01:08.572Z,98976.05
2019-03-08T06:03:39.106Z,99007.19
2019-03-08T06:06:09.561Z,99015.00
2019-03-08T06:08:40.093Z,99037.95
2019-03-08T06:11:10.622Z,99021.14
2019-03-08T06:13:41.046Z,99084.33
2019-03-08T06:16:11.487Z,99075.62
2019-03-08T06:18:42.074Z,99080.63
2019-03-08T06:21:12.547Z,99105.47
2019-03-08T06:23:43.234Z,99107.42
2019-03-08T06:26:13.760Z,99103.44
2019-03-08T06:28:44.282Z,99108.92
2019-03-08T06:31:14.942Z,99116.55
2019-03-08T06:33:45.421Z,99109.84
2019-03-08T06:36:16.058Z,99138.98
2019-03-08T06:38:46.398Z,99169.39
2019-03-08T06:41:16.963Z,99165.13
2019-03-08T06:43:47.447Z,99213.88
2019-03-08T06:46:17.935Z,99213.47
2019-03-08T06:48:48.495Z,99213.91
2019-03-08T06:51:19.012Z,99218.57
2019-03-08T06:53:49.518Z,99234.59
2019-03-08T06:56:20.095Z,99247.69
2019-03-08T06:58:56.905Z,99253.87
2019-03-08T07:01:30.470Z,99279.26
2019-03-08T07:04:00.929Z,99293.25
2019-03-08T07:06:31.396Z,99308.47
2019-03-08T07:09:01.941Z,99316.12
2019-03-08T07:11:32.381Z,99309.09
2019-03-08T07:14:02.859Z,99316.54
2019-03-08T07:16:33.444Z,99340.71
2019-03-08T07:19:03.920Z,99348.64
2019-03-08T07:21:53.382Z,99380.79
2019-03-08T07:24:41.692Z,99398.41
2019-03-08T07:27:22.873Z,99391.34
2019-03-08T07:30:10.918Z,99413.19
2019-03-08T07:32:53.196Z,99434.95
2019-03-08T07:35:51.855Z,99430.34
2019-03-08T07:38:41.305Z,99447.86
2019-03-08T07:41:39.923Z,99448.11
2019-03-08T07:44:17.376Z,99459.55
2019-03-08T07:47:18.859Z,99483.55
2019-03-08T07:50:01.337Z,99483.55
2019-03-08T07:53:03.106Z,99501.98
2019-03-08T07:55:46.719Z,99502.66
2019-03-08T07:58:52.986Z,99510.95
2019-03-08T08:01:44.969Z,99524.56
2019-03-08T08:04:33.196Z,99547.64
2019-03-08T08:07:21.365Z,99564.67
2019-03-08T08:10:16.866Z,99579.42
2019-03-08T08:13:06.310Z,99589.06
2019-03-08T08:15:54.546Z,99608.23
2019-03-08T08:18:48.325Z,99610.80
2019-03-08T08:21:46.513Z,99631.20
2019-03-08T08:24:24.873Z,99632.70
2019-03-08T08:27:12.839Z,99650.56
2019-03-08T08:30:05.372Z,99675.78
2019-03-08T08:32:47.120Z,99663.41
2019-03-08T08:35:42.813Z,99684.09
2019-03-08T08:41:29.227Z,99704.22
2019-03-08T08:44:18.654Z,99723.49
2019-03-08T08:47:08.085Z,99721.58
2019-03-08T08:49:56.683Z,99731.04
2019-03-08T08:52:39.651Z,99727.21
2019-03-08T08:55:38.361Z,99733.38
2019-03-08T08:58:26.898Z,99741.22
2019-03-08T09:01:16.813Z,99753.52
2019-03-08T09:04:06.429Z,99773.16
2019-03-08T09:06:54.531Z,99782.09
2019-03-08T09:09:41.724Z,99789.08
2019-03-08T09:12:30.053Z,99791.75
2019-03-08T09:15:22.579Z,99777.16
2019-03-08T09:18:11.963Z,99818.69
2019-03-08T09:21:16.711Z,99817.01
2019-03-08T09:24:00.214Z,99841.34
2019-03-08T09:26:49.747Z,99841.63
2019-03-08T09:29:48.311Z,99855.99
2019-03-08T09:32:33.294Z,99848.20
2019-03-08T09:35:17.960Z,99856.30
2019-03-08T09:38:09.873Z,99870.94
2019-03-08T09:41:05.762Z,99895.17
2019-03-08T09:43:42.665Z,99906.91
2019-03-08T09:46:22.431Z,99908.78
2019-03-08T09:49:16.517Z,99893.13
2019-03-08T09:52:04.780Z,99907.31
2019-03-08T09:54:57.295Z,99900.80
2019-03-08T09:57:45.388Z,99923.14
2019-03-08T10:00:27.495Z,99944.36
2019-03-08T10:03:20.010Z,99921.04
2019-03-08T10:06:02.698Z,99939.45
2019-03-08T10:08:48.386Z,99986.77
2019-03-08T10:11:26.998Z,99955.89
2019-03-08T10:14:08.814Z,99996.29
2019-03-08T10:16:53.559Z,99992.59
2019-03-08T10:19:37.604Z,99992.34
2019-03-08T10:22:26.393Z,100009.38
2019-03-08T10:25:16.168Z,100011.02
2019-03-08T10:28:17.466Z,100036.56
2019-03-08T10:31:12.751Z,100026.67
2019-03-08T10:34:08.269Z,100027.77
2019-03-08T10:36:57.632Z,100043.33
2019-03-08T10:39:43.624Z,100065.44
2019-03-08T10:42:33.026Z,100068.95
2019-03-08T10:45:25.884Z,100092.15
2019-03-08T10:48:18.038Z,100120.73
2019-03-08T10:50:59.294Z,100084.37
2019-03-08T10:53:48.706Z,100117.19
2019-03-08T10:56:38.170Z,100106.33
2019-03-08T10:59:36.071Z,100129.02
2019-03-08T11:02:39.585Z,100111.30
2019-03-08T11:05:35.130Z,100130.72
2019-03-08T11:08:30.011Z,100115.69
2019-03-08T11:11:11.448Z,100128.63
2019-03-08T11:13:59.897Z,100152.12
2019-03-08T11:16:45.335Z,100159.66
2019-03-08T11:19:39.414Z,100162.30
2019-03-08T11:22:38.261Z,100160.00
2019-03-08T11:25:35.269Z,100159.59
2019-03-08T11:28:24.793Z,100175.63
2019-03-08T11:31:25.049Z,100209.08
2019-03-08T11:34:05.330Z,100192.45
2019-03-08T11:36:54.845Z,100215.53
2019-03-08T11:39:44.717Z,100235.04
2019-03-08T11:42:40.514Z,100215.66
2019-03-08T11:45:29.628Z,100218.09
2019-03-08T11:48:22.234Z,100238.68
2019-03-08T11:51:03.216Z,100244.95
2019-03-08T11:53:56.142Z,100251.18
2019-03-08T11:56:43.710Z,100260.36
2019-03-08T11:59:40.182Z,100252.48
2019-03-08T12:02:45.077Z,100274.17
2019-03-08T12:05:40.690Z,100285.37
2019-03-08T12:08:21.226Z,100302.25
2019-03-08T12:11:41.822Z,100311.53
2019-03-08T12:14:40.447Z,100303.78
2019-03-08T12:17:29.869Z,100314.25
2019-03-08T12:20:14.145Z,100329.16
2019-03-08T12:23:06.339Z,100329.27
2019-03-08T12:26:04.868Z,100337.33
2019-03-08T12:28:50.305Z,100345.53
2019-03-08T12:31:36.486Z,100362.31
2019-03-08T12:34:25.115Z,100344.19
2019-03-08T12:37:05.454Z,100354.69
2019-03-08T12:40:01.217Z,100369.11
2019-03-08T12:42:50.577Z,100370.17
2019-03-08T12:45:30.862Z,100368.48
2019-03-08T12:48:26.189Z,100366.02
2019-03-08T12:51:15.644Z,100382.89
2019-03-08T12:54:03.674Z,100386.84
2019-03-08T12:56:52.996Z,100384.21
2019-03-08T12:59:48.726Z,100389.95
2019-03-08T13:02:27.897Z,100401.84
2019-03-08T13:05:17.329Z,100394.95
2019-03-08T13:07:55.082Z,100411.36
2019-03-08T13:10:25.613Z,100402.59
2019-03-08T13:12:56.058Z,100398.89
2019-03-08T13:15:26.590Z,100400.27
2019-03-08T13:17:57.093Z,100411.73
2019-03-08T13:20:27.596Z,100401.68
2019-03-08T13:22:58.191Z,100413.80
2019-03-08T13:25:28.690Z,100403.51
2019-03-08T13:27:59.068Z,100424.73
2019-03-08T13:30:29.459Z,100404.16
2019-03-08T13:33:00.006Z,100415.50
2019-03-08T13:35:30.486Z,100435.34
2019-03-08T13:38:01.042Z,100441.20
2019-03-08T13:40:31.545Z,100446.84
2019-03-08T13:43:01.992Z,100463.66
2019-03-08T13:45:32.539Z,100461.94
2019-03-08T13:48:03.029Z,100461.63
2019-03-08T13:50:33.687Z,100455.80
2019-03-08T13:53:04.314Z,100476.69
2019-03-08T13:55:34.839Z,100485.13
2019-03-08T13:58:05.321Z,100467.02
2019-03-08T14:00:35.853Z,100477.14
2019-03-08T14:03:06.526Z,100482.55
2019-03-08T14:05:37.009Z,100485.46
2019-03-08T14:08:07.655Z,100489.79
2019-03-08T14:10:38.120Z,100492.92
2019-03-08T14:13:08.576Z,100479.34
2019-03-08T14:15:39.203Z,100498.52
2019-03-08T14:18:09.670Z,100491.31
2019-03-08T14:20:40.151Z,100504.34
2019-03-08T14:23:10.705Z,100512.40
2019-03-08T14:25:41.172Z,100509.83
2019-03-08T14:28:11.852Z,100519.06
2019-03-08T14:30:57.786Z,100532.45
2019-03-08T14:33:26.864Z,100537.30
2019-03-08T14:35:57.407Z,100549.13
2019-03-08T14:38:36.589Z,100540.84
2019-03-08T14:41:22.567Z,100552.46
2019-03-08T14:43:58.490Z,100549.86
2019-03-08T14:46:37.231Z,100564.22
2019-03-08T14:49:07.853Z,100576.27
2019-03-08T14:51:38.330Z,100576.02
2019-03-08T14:54:09.915Z,100577.69
2019-03-08T14:56:41.177Z,100582.45
2019-03-08T14:59:15.416Z,100577.70
2019-03-08T15:01:43.920Z,100577.95
2019-03-08T15:04:14.456Z,100579.36
2019-03-08T15:06:44.965Z,100583.16
2019-03-08T15:09:15.867Z,100592.52
2019-03-08T15:11:46.499Z,100589.30
2019-03-08T15:14:16.925Z,100597.06
2019-03-08T15:16:48.521Z,100600.16
2019-03-08T15:19:19.373Z,100596.00
2019-03-08T15:21:49.946Z,100594.55
2019-03-08T15:24:20.567Z,100596.83
2019-03-08T15:26:51.195Z,100594.46
2019-03-08T15:29:21.958Z,100601.12
2019-03-08T15:31:52.854Z,100600.64
2019-03-08T15:34:23.444Z,100604.80
2019-03-08T15:36:54.057Z,100606.23
2019-03-08T15:39:24.716Z,100609.97
2019-03-08T15:41:58.635Z,100613.83
2019-03-08T15:44:28.279Z,100619.79
2019-03-08T15:47:00.506Z,100612.64
2019-03-08T15:49:31.702Z,100620.27
2019-03-08T15:52:03.667Z,100612.12
2019-03-08T15:54:34.497Z,100607.23
2019-03-08T15:57:05.074Z,100613.95
2019-03-08T15:59:35.609Z,100610.48
2019-03-08T16:02:07.773Z,100610.26
2019-03-08T16:04:38.348Z,100618.27
2019-03-08T16:07:09.045Z,100610.00
2019-03-08T16:09:39.589Z,100617.89
2019-03-08T16:12:10.115Z,100623.03
2019-03-08T16:14:40.717Z,100613.34
2019-03-08T16:17:11.262Z,100624.83
2019-03-08T16:19:41.797Z,100615.97
2019-03-08T16:22:12.424Z,100625.66
2019-03-08T16:24:42.992Z,100627.67
2019-03-08T16:27:13.524Z,100642.01
2019-03-08T16:29:44.430Z,100634.47
2019-03-08T16:32:30.354Z,100641.52
2019-03-08T16:35:00.478Z,100636.61
2019-03-08T16:37:52.419Z,100641.02
2019-03-08T16:40:43.848Z,100652.11
2019-03-08T16:43:31.824Z,100648.96
2019-03-08T16:46:09.659Z,100656.60
2019-03-08T16:48:45.876Z,100645.84
2019-03-08T16:51:25.367Z,100651.78
2019-03-08T16:54:10.991Z,100652.03
2019-03-08T16:57:06.174Z,100651.64
2019-03-08T16:59:59.918Z,100649.97
2019-03-08T17:02:52.178Z,100649.48
2019-03-08T17:05:57.016Z,100660.05
2019-03-08T17:08:55.107Z,100656.33
2019-03-08T17:11:57.012Z,100659.62
2019-03-08T17:14:50.607Z,100673.81
2019-03-08T17:17:33.030Z,100655.42
2019-03-08T17:20:11.842Z,100650.48
2019-03-08T17:23:01.297Z,100650.19
2019-03-08T17:25:40.252Z,100653.97
2019-03-08T17:28:22.264Z,100658.92
2019-03-08T17:30:58.484Z,100654.16
2019-03-08T17:33:46.902Z,100639.89
2019-03-08T17:36:35.662Z,100647.89
2019-03-08T17:39:37.631Z,100653.04
2019-03-08T17:42:15.801Z,100653.94
2019-03-08T17:45:03.977Z,100668.31
2019-03-08T17:47:52.105Z,100668.55
2019-03-08T17:50:40.199Z,100669.50
2019-03-08T17:53:22.104Z,100669.96
2019-03-08T17:56:17.880Z,100668.13
2019-03-08T17:59:10.067Z,100667.16
2019-03-08T18:01:50.286Z,100666.73
2019-03-08T18:04:39.755Z,100664.70
2019-03-08T18:07:29.275Z,100664.91
2019-03-08T18:10:17.337Z,100669.81
2019-03-08T18:13:06.106Z,100669.81
2019-03-08T18:15:55.627Z,100675.06
2019-03-08T18:18:44.072Z,100679.05
2019-03-08T18:21:28.657Z,100673.55
2019-03-08T18:24:23.316Z,100678.44
2019-03-08T18:27:07.913Z,100676.89
2019-03-08T18:30:15.804Z,100673.72
2019-03-08T18:32:54.730Z,100672.17
2019-03-08T18:35:43.559Z,100676.07
2019-03-08T18:38:38.735Z,100673.65
2019-03-08T18:41:38.642Z,100670.50
2019-03-08T18:44:28.068Z,100672.23
2019-03-08T18:47:11.345Z,100670.66
2019-03-08T18:49:49.556Z,100666.73
2019-03-08T18:52:48.005Z,100667.45
2019-03-08T18:55:37.459Z,100666.53
2019-03-08T18:58:15.602Z,100674.17
2019-03-08T19:01:11.417Z,100671.80
2019-03-08T19:03:53.336Z,100666.36
2019-03-08T19:06:44.029Z,100667.77
2019-03-08T19:09:22.530Z,100669.34
2019-03-08T19:12:17.815Z,100660.62
2019-03-08T19:15:01.392Z,100665.77
2019-03-08T19:17:52.495Z,100664.71
2019-03-08T19:20:45.095Z,100660.43
2019-03-08T19:23:50.145Z,100661.17
2019-03-08T19:26:34.758Z,100655.55
2019-03-08T19:29:15.835Z,100658.40
2019-03-08T19:31:53.311Z,100644.80
2019-03-08T19:34:41.238Z,100647.31
2019-03-08T19:37:22.082Z,100635.26
2019-03-08T19:40:30.622Z,100631.42
2019-03-08T19:43:18.736Z,100633.48
2019-03-08T19:46:06.187Z,100640.61
2019-03-08T19:48:54.367Z,100637.06
2019-03-08T19:51:43.767Z,100641.45
2019-03-08T19:54:45.456Z,100631.97
2019-03-08T19:57:26.116Z,100633.09
2019-03-08T20:00:14.468Z,100631.36
2019-03-08T20:03:19.109Z,100622.72
2019-03-08T20:06:17.895Z,100623.80
2019-03-08T20:09:19.422Z,100613.25
2019-03-08T20:12:18.013Z,100612.53
2019-03-08T20:15:10.628Z,100615.67
2019-03-08T20:18:06.274Z,100610.01
2019-03-08T20:20:52.809Z,100602.38
2019-03-08T20:24:00.629Z,100600.48
2019-03-08T20:26:49.977Z,100605.29
2019-03-08T20:29:27.280Z,100598.89
2019-03-08T20:32:07.023Z,100591.39
2019-03-08T20:34:52.977Z,100579.77
2019-03-08T20:37:36.747Z,100584.80
2019-03-08T20:40:14.771Z,100586.17
2019-03-08T20:42:50.490Z,100581.20
2019-03-08T20:45:29.279Z,100574.38
2019-03-08T20:47:59.816Z,100571.41
2019-03-08T20:50:30.275Z,100572.94
2019-03-08T20:53:00.801Z,100570.70
2019-03-08T20:55:31.308Z,100568.23
2019-03-08T20:58:02.179Z,100562.69
2019-03-08T21:00:33.335Z,100551.94
2019-03-08T21:03:03.963Z,100560.31
2019-03-08T21:05:34.442Z,100555.92
2019-03-08T21:08:04.960Z,100549.63
2019-03-08T21:10:35.479Z,100545.56
2019-03-08T21:13:05.984Z,100543.33
2019-03-08T21:15:36.461Z,100539.60
2019-03-08T21:18:06.964Z,100539.09
2019-03-08T21:20:37.461Z,100530.78
2019-03-08T21:23:07.966Z,100535.57
2019-03-08T21:25:38.552Z,100524.13
2019-03-08T21:28:10.000Z,100525.19
2019-03-08T21:30:40.521Z,100521.05
2019-03-08T21:33:11.027Z,100520.09
2019-03-08T21:35:41.468Z,100520.09
2019-03-08T21:38:12.060Z,100516.33
2019-03-08T21:40:42.598Z,100513.04
2019-03-08T21:43:13.256Z,100502.16
2019-03-08T21:45:44.032Z,100498.05
2019-03-08T21:48:14.682Z,100495.43
2019-03-08T21:50:45.167Z,100493.20
2019-03-08T21:53:15.768Z,100491.19
2019-03-08T21:55:46.274Z,100482.30
2019-03-08T21:58:16.752Z,100480.13
2019-03-08T22:00:47.176Z,100475.28
2019-03-08T22:03:17.748Z,100482.75
2019-03-08T22:05:48.248Z,100472.41
2019-03-08T22:08:18.822Z,100469.47
2019-03-08T22:11:11.345Z,100473.33
2019-03-08T22:13:41.902Z,100461.84
2019-03-08T22:16:12.415Z,100455.33
2019-03-08T22:18:42.919Z,100450.97
2019-03-08T22:21:13.441Z,100446.89
2019-03-08T22:23:43.952Z,100441.05
2019-03-08T22:26:14.412Z,100438.17
2019-03-08T22:28:45.008Z,100435.23
2019-03-08T22:31:15.603Z,100427.12
2019-03-08T22:33:46.161Z,100421.44
2019-03-08T22:36:16.679Z,100414.60
2019-03-08T22:38:47.193Z,100409.72
2019-03-08T22:41:17.954Z,100404.33
2019-03-08T22:43:48.487Z,100404.33
2019-03-08T22:46:19.005Z,100401.59
2019-03-08T22:48:50.371Z,100391.68
2019-03-08T22:51:20.917Z,100387.99
2019-03-08T22:53:51.435Z,100381.30
2019-03-08T22:56:21.967Z,100377.26
2019-03-08T22:58:52.495Z,100374.84
2019-03-08T23:01:23.712Z,100367.80
2019-03-08T23:03:54.339Z,100365.19
2019-03-08T23:06:24.897Z,100357.59
2019-03-08T23:08:55.366Z,100359.64
2019-03-08T23:11:25.852Z,100351.14
2019-03-08T23:13:56.441Z,100349.94
2019-03-08T23:16:27.202Z,100337.45
2019-03-08T23:18:57.737Z,100337.78
2019-03-08T23:21:28.296Z,100334.92
2019-03-08T23:23:58.821Z,100333.03
2019-03-08T23:26:30.969Z,100326.23
2019-03-08T23:29:08.766Z,100325.75
2019-03-08T23:31:48.492Z,100324.66
2019-03-08T23:34:19.015Z,100328.23
2019-03-08T23:36:49.662Z,100327.05
2019-03-08T23:39:20.118Z,100321.92
2019-03-08T23:41:50.705Z,100321.19
2019-03-08T23:44:21.156Z,100320.33
2019-03-08T23:46:51.691Z,100316.41
2019-03-08T23:49:22.218Z,100313.31
2019-03-08T23:51:52.729Z,100312.99
2019-03-08T23:54:23.201Z,100299.89
2019-03-08T23:56:53.729Z,100289.88
2019-03-08T23:59:24.236Z,100284.89
